Elmira, Canada
Current Conditions -  °F | °C
As of 12:00 PM on Sunday 23 Nov 2014 (Local Time) from CYKF Reporting Station
Light Rain Light Rain  
Wind Chill: 39°   Ceiling: 500
Heat Index: 45°   Visibility: 3mi
Dew Point: 43°   Wind: 10mph
Humidity: 93%   Direction: 200°SSW
Pressure: 29.95"   Gusts: NA
Location:  43.6°N, 80.55°W
Report Text: CYKF 231700Z AUTO 20009KT 3SM -RA BR OVC005 07/06 A2995 RMK SLP149
Loading
Personal Weather Stations






























Interactive Weather Map New forecast layout! Learn more

10-Day Weather Forecast

Advertisements
Track Severe Weather on mobile